This is the latest recevied weather packets stored in our database for station/object OK2JCZ-6. If no packets are shown the sender has not sent any weather packets the latest 10 day(s).
| Time | Temp. | Humidity | Pressure | Rain* | Wind** | Luminosity | Snow |
|---|---|---|---|---|---|---|---|
| 1777749878 | 10° C | 44% | 1019.8 hPa | 0 mm | - | - | - |
| 1777749278 | 11.11° C | 43% | 1019.8 hPa | 0 mm | - | - | - |
| 1777748678 | 11.67° C | 41% | 1019.7 hPa | 0 mm | - | - | - |
| 1777748378 | 11.11° C | 41% | 1019.7 hPa | 0 mm | - | - | - |
| 1777746578 | 12.78° C | 40% | 1019.4 hPa | 0 mm | - | - | - |
| 1777745378 | 16.11° C | 34% | 1019.2 hPa | 0 mm | - | - | - |
| 1777744478 | 17.22° C | 31% | 1019.1 hPa | 0 mm | - | - | - |
| 1777743878 | 18.33° C | 30% | 1019 hPa | 0 mm | - | - | - |
| 1777742978 | 20.56° C | 29% | 1019.1 hPa | 0 mm | - | - | - |
| 1777742678 | 20.56° C | 28% | 1019 hPa | 0 mm | - | - | - |
| 1777741778 | 21.67° C | 23% | 1019.1 hPa | 0 mm | - | - | - |
| 1777741479 | 21.67° C | 24% | 1019.2 hPa | 0 mm | - | - | - |
| 1777741178 | 22.22° C | 24% | 1019.2 hPa | 0 mm | - | - | - |
| 1777739978 | 22.78° C | 22% | 1019.4 hPa | 0 mm | - | - | - |
| 1777739678 | 22.78° C | 23% | 1019.4 hPa | 0 mm | - | - | - |
| 1777738778 | 25° C | 21% | 1019.6 hPa | 0 mm | - | - | - |
| 1777738478 | 25° C | 20% | 1019.7 hPa | 0 mm | - | - | - |
| 1777736978 | 23.33° C | 21% | 1020 hPa | 0 mm | - | - | - |
| 1777736678 | 23.33° C | 22% | 1020.1 hPa | 0 mm | - | - | - |
| 1777736378 | 23.89° C | 22% | 1020.1 hPa | 0 mm | - | - | - |
| 1777736078 | 23.89° C | 21% | 1020.2 hPa | 0 mm | - | - | - |
| 1777735778 | 25° C | 21% | 1020.2 hPa | 0 mm | - | - | - |
| 1777734878 | 25° C | 21% | 1020.3 hPa | 0 mm | - | - | - |
| 1777734578 | 26.11° C | 20% | 1020.4 hPa | 0 mm | - | - | - |
| 1777734278 | 26.11° C | 20% | 1020.4 hPa | 0 mm | - | - | - |
* Rain latest hour (hover to see other rain measurements)
** Current wind speed in m/s (hover to see current wind gust speed)